CheckWX is a tool to help pilots better visualize weather data.  It is not intended as a substitute for an official pre-flight weather briefing.

15:07:58 UTC

6R3 METAR
Cleveland Municipal Airport
Cleveland, Texas, USA
Current

33 mins ago

K6R3 211435Z AUTO 24003KT 10SM SCT014 30/27 A3000 RMK AO2 T02960265
Observed
Jul-21 @ 14:35 UTC
Wind
  • 240° at 3 KTS
Visibility
10 SM
Flight Rules
VFR
Cloud Levels
  • Scattered at 1,400' AGL
Temperature
30°C / 86°F
Dewpoint
27°C / 81°F
Heat Index
39°C / 102°F
Humidity
84%
Altimeter
30" Hg
Pressure
1015.92 hPa
Previous

53 mins ago

K6R3 211415Z AUTO 21003KT 10SM CLR 29/27 A3000 RMK AO2 T02860267
Observed
Jul-21 @ 14:15 UTC
Wind
  • 210° at 3 KTS
Visibility
10 SM
Flight Rules
VFR
Cloud Levels
  • Clear skies
Temperature
29°C / 84°F
Dewpoint
27°C / 81°F
Heat Index
37°C / 98°F
Humidity
89%
Altimeter
30" Hg
Pressure
1015.92 hPa
Previous

1 hour ago

K6R3 211355Z AUTO 00000KT 10SM CLR 28/27 A3000 RMK AO2 T02760271
Observed
Jul-21 @ 13:55 UTC
Visibility
10 SM
Flight Rules
VFR
Cloud Levels
  • Clear skies
Temperature
28°C / 82°F
Dewpoint
27°C / 81°F
Heat Index
34°C / 93°F
Humidity
94%
Altimeter
30" Hg
Pressure
1015.92 hPa